Time;durP1;ratioP1;P1;durP2;ratioP2;P2;SDS_P1;SDS_P2;PMS_P1;PMS_P2;Temp;Humidity;BMP_temperature;BMP_pressure;BME280_temperature;BME280_humidity;BME280_pressure;Samples;Min_cycle;Max_cycle;Signal;HPM_P1;HPM_P2
2022/11/01 00:04:12;;;;;;;11.87;8.20;;;11.80;99.90;;;;;;10487488;28;20241;-91
2022/11/01 00:09:33;;;;;;;11.07;8.23;;;11.90;99.90;;;;;;10482952;28;20189;-84
2022/11/01 00:14:55;;;;;;;11.07;8.13;;;11.80;99.90;;;;;;10499619;28;20211;-82
2022/11/01 00:20:16;;;;;;;16.27;9.80;;;11.80;99.90;;;;;;10483698;28;20207;-83
2022/11/01 00:25:37;;;;;;;12.67;8.30;;;11.80;99.90;;;;;;10477575;28;20247;-84
2022/11/01 00:30:58;;;;;;;9.83;7.53;;;11.80;99.90;;;;;;10462854;28;20458;-88
2022/11/01 00:36:20;;;;;;;12.30;8.07;;;11.80;99.90;;;;;;10477424;28;20269;-91
2022/11/01 00:41:41;;;;;;;10.20;7.23;;;11.80;99.90;;;;;;10480254;28;20558;-79
2022/11/01 00:47:02;;;;;;;9.90;6.80;;;11.80;99.90;;;;;;10533019;28;20229;-80
2022/11/01 00:52:24;;;;;;;9.07;6.10;;;11.70;99.90;;;;;;10508821;28;20225;-89
2022/11/01 00:57:46;;;;;;;7.47;6.20;;;11.80;99.90;;;;;;10527383;28;20214;-89
2022/11/01 01:03:07;;;;;;;6.90;5.93;;;11.70;99.90;;;;;;10496850;28;20200;-83
2022/11/01 01:08:28;;;;;;;6.57;5.33;;;11.70;99.90;;;;;;10470310;28;20283;-85
2022/11/01 01:13:49;;;;;;;7.77;5.43;;;11.70;99.90;;;;;;10470467;28;20198;-87
2022/11/01 01:19:10;;;;;;;7.23;5.57;;;11.70;99.90;;;;;;10485386;28;20220;-86
2022/11/01 01:24:31;;;;;;;6.70;5.43;;;11.70;99.90;;;;;;10469614;28;20203;-82
2022/11/01 01:29:52;;;;;;;9.10;5.87;;;11.70;99.90;;;;;;10469724;28;20189;-88
2022/11/01 01:35:13;;;;;;;8.50;6.40;;;11.70;99.90;;;;;;10483599;28;20225;-90
2022/11/01 01:40:35;;;;;;;9.00;6.20;;;11.70;99.90;;;;;;10491598;28;20194;-83
2022/11/01 01:45:56;;;;;;;8.23;6.57;;;11.70;99.90;;;;;;10524197;28;20233;-79
2022/11/01 01:51:22;;;;;;;9.43;6.70;;;11.70;99.90;;;;;;10510052;28;20192;-79
2022/11/01 01:56:43;;;;;;;11.17;7.40;;;11.70;99.90;;;;;;10509522;28;20242;-79
2022/11/01 02:02:05;;;;;;;10.67;6.20;;;11.60;99.90;;;;;;10501050;28;20255;-80
2022/11/01 02:07:27;;;;;;;9.67;6.50;;;11.60;99.90;;;;;;10455039;28;20389;-80
2022/11/01 02:12:48;;;;;;;8.80;6.60;;;11.60;99.90;;;;;;10478909;28;20201;-86
2022/11/01 02:18:53;;;;;;;9.90;6.23;;;11.60;99.90;;;;;;10481651;28;20216;-79
2022/11/01 02:24:20;;;;;;;8.50;5.80;;;11.70;99.90;;;;;;10423648;28;20302;-80
2022/11/01 02:29:57;;;;;;;10.43;6.73;;;11.70;99.90;;;;;;10423174;28;20209;-79
2022/11/01 02:35:42;;;;;;;10.27;6.20;;;11.70;99.90;;;;;;10407239;28;20473;-87
2022/11/01 02:41:10;;;;;;;8.93;5.70;;;11.70;99.90;;;;;;10449161;28;20391;-88
2022/11/01 02:52:23;;;;;;;10.77;6.30;;;11.70;99.90;;;;;;10477569;28;20574;-79
2022/11/01 02:57:46;;;;;;;8.30;5.50;;;11.70;99.90;;;;;;10496979;28;20240;-79
2022/11/01 03:03:36;;;;;;;7.57;5.23;;;11.70;99.90;;;;;;10491727;28;20450;-86
2022/11/01 03:09:02;;;;;;;8.30;5.93;;;11.70;99.90;;;;;;10467725;28;20365;-87
2022/11/01 03:14:30;;;;;;;7.50;5.57;;;11.70;99.90;;;;;;10479616;28;20196;-83
2022/11/01 03:19:59;;;;;;;7.37;5.57;;;11.70;99.90;;;;;;10479394;28;20189;-80
2022/11/01 03:25:39;;;;;;;7.83;5.83;;;11.70;99.90;;;;;;10451564;28;20193;-79
2022/11/01 03:31:07;;;;;;;8.60;5.43;;;11.80;99.90;;;;;;10437260;28;20213;-79
2022/11/01 03:36:35;;;;;;;7.37;5.23;;;11.70;99.90;;;;;;10489796;28;20215;-80
2022/11/01 03:42:01;;;;;;;8.00;6.03;;;11.70;99.90;;;;;;10497457;28;20189;-90
2022/11/01 03:47:23;;;;;;;11.23;6.13;;;11.70;99.90;;;;;;10519557;28;20238;-80
2022/11/01 03:52:44;;;;;;;9.07;6.30;;;11.70;99.90;;;;;;10538867;28;20218;-81
2022/11/01 03:58:06;;;;;;;11.03;7.43;;;11.70;99.90;;;;;;10519033;28;20220;-81
2022/11/01 04:03:27;;;;;;;12.87;7.37;;;11.70;99.90;;;;;;10480991;28;20380;-82
2022/11/01 04:08:48;;;;;;;10.37;6.83;;;11.70;99.90;;;;;;10477581;28;20488;-82
2022/11/01 04:25:30;;;;;;;13.53;9.03;;;11.70;99.90;;;;;;10477891;28;20223;-79
2022/11/01 04:30:52;;;;;;;15.77;10.80;;;11.70;99.90;;;;;;10485354;28;20189;-88
2022/11/01 04:36:12;;;;;;;18.50;12.63;;;11.70;99.90;;;;;;10485431;28;20220;-80
2022/11/01 04:41:34;;;;;;;16.17;9.63;;;11.60;99.90;;;;;;10515316;28;20188;-80
2022/11/01 04:46:55;;;;;;;16.97;9.57;;;11.60;99.90;;;;;;10526801;28;20223;-81
2022/11/01 04:52:16;;;;;;;16.17;10.20;;;11.60;99.90;;;;;;10531837;28;20222;-79
2022/11/01 04:57:41;;;;;;;18.30;10.23;;;11.60;99.90;;;;;;10544252;28;20208;-82
2022/11/01 05:03:08;;;;;;;16.27;10.00;;;11.60;99.90;;;;;;10503497;28;20192;-79
2022/11/01 05:08:30;;;;;;;15.80;9.47;;;11.60;99.90;;;;;;10455974;28;20203;-79
2022/11/01 05:13:51;;;;;;;12.93;9.27;;;11.60;99.90;;;;;;10484421;28;20201;-79
2022/11/01 05:19:12;;;;;;;14.90;10.47;;;11.60;99.90;;;;;;10484249;28;20227;-78
2022/11/01 05:24:33;;;;;;;19.23;10.90;;;11.60;99.90;;;;;;10444748;28;20208;-79
2022/11/01 05:29:55;;;;;;;20.23;11.13;;;11.60;99.90;;;;;;10480784;28;20191;-79
2022/11/01 05:35:16;;;;;;;17.33;11.67;;;11.60;99.90;;;;;;10469407;28;20200;-79
2022/11/01 05:40:37;;;;;;;24.17;13.17;;;11.60;99.90;;;;;;10505263;28;20195;-88
2022/11/01 05:46:01;;;;;;;21.27;13.87;;;11.50;99.90;;;;;;10510318;28;20548;-81
2022/11/01 05:51:23;;;;;;;24.53;14.50;;;11.60;99.90;;;;;;10523861;28;20198;-79
2022/11/01 05:56:44;;;;;;;23.00;13.97;;;11.60;99.90;;;;;;10509715;28;20231;-84
2022/11/01 06:02:05;;;;;;;23.53;15.23;;;11.60;99.90;;;;;;10499668;28;20188;-81
2022/11/01 06:07:26;;;;;;;28.63;14.90;;;11.60;99.90;;;;;;10468218;28;20491;-83
2022/11/01 06:12:48;;;;;;;26.70;15.13;;;11.60;99.90;;;;;;10481514;28;20496;-80
2022/11/01 06:18:09;;;;;;;27.40;16.87;;;11.60;99.90;;;;;;10481788;28;20286;-87
2022/11/01 06:23:30;;;;;;;28.13;17.93;;;11.60;99.90;;;;;;10451264;28;20214;-80
2022/11/01 06:28:51;;;;;;;28.73;18.03;;;11.60;99.90;;;;;;10457738;28;20193;-80
2022/11/01 06:34:13;;;;;;;30.67;20.57;;;11.50;99.90;;;;;;10466330;28;20191;-79
2022/11/01 06:39:34;;;;;;;30.07;17.83;;;11.60;99.90;;;;;;10480168;28;20291;-82
2022/11/01 06:44:56;;;;;;;29.83;18.90;;;11.60;99.90;;;;;;10521776;28;20195;-81
2022/11/01 06:50:17;;;;;;;27.40;17.73;;;11.50;99.90;;;;;;10522199;28;20266;-80
2022/11/01 06:55:38;;;;;;;28.13;17.47;;;11.50;99.90;;;;;;10536176;28;20458;-87
2022/11/01 07:01:01;;;;;;;25.23;17.00;;;11.60;99.90;;;;;;10483546;28;20206;-80
2022/11/01 07:06:29;;;;;;;29.33;18.17;;;11.50;99.90;;;;;;10464953;28;20498;-79
2022/11/01 07:11:50;;;;;;;34.70;19.63;;;11.50;99.90;;;;;;10482273;28;20202;-86
2022/11/01 07:17:12;;;;;;;36.10;23.83;;;11.60;99.90;;;;;;10451658;28;20544;-82
2022/11/01 07:22:34;;;;;;;38.13;22.33;;;11.60;99.90;;;;;;10443102;28;20226;-86
2022/11/01 07:27:56;;;;;;;32.70;19.33;;;11.60;99.90;;;;;;10439010;28;20237;-82
2022/11/01 07:33:17;;;;;;;39.50;22.80;;;11.50;99.90;;;;;;10455379;28;20485;-83
2022/11/01 07:38:39;;;;;;;37.97;22.07;;;11.60;99.90;;;;;;10469915;28;20398;-85
2022/11/01 07:44:00;;;;;;;38.47;24.00;;;11.60;99.90;;;;;;10520041;28;20196;-83
2022/11/01 07:49:21;;;;;;;37.90;24.40;;;11.60;99.90;;;;;;10519915;28;20236;-85
2022/11/01 07:54:43;;;;;;;50.90;27.77;;;11.60;99.90;;;;;;10523931;28;20218;-79
2022/11/01 08:00:06;;;;;;;43.83;24.60;;;11.60;99.90;;;;;;10517074;28;20229;-80
2022/11/01 08:05:32;;;;;;;40.03;23.67;;;11.60;99.90;;;;;;10474056;28;20275;-79
2022/11/01 08:10:53;;;;;;;43.77;24.53;;;11.60;99.90;;;;;;10483444;28;20185;-90
2022/11/01 08:16:16;;;;;;;47.43;30.03;;;11.60;99.90;;;;;;10479240;28;20211;-81
2022/11/01 08:21:38;;;;;;;47.07;30.60;;;11.60;99.90;;;;;;10478068;28;20373;-85
2022/11/01 08:27:01;;;;;;;67.03;35.17;;;11.50;99.90;;;;;;10437987;28;20194;-89
2022/11/01 08:32:22;;;;;;;45.23;26.40;;;11.60;99.90;;;;;;10434185;28;20190;-85
2022/11/01 08:37:50;;;;;;;52.30;30.00;;;11.60;99.90;;;;;;10477983;28;20553;-78
2022/11/01 08:43:11;;;;;;;45.20;24.53;;;11.60;99.90;;;;;;10518550;28;20199;-79
2022/11/01 08:48:32;;;;;;;45.10;25.67;;;11.70;99.90;;;;;;10503994;28;20241;-77
2022/11/01 08:53:55;;;;;;;53.30;30.57;;;11.70;99.90;;;;;;10547435;28;20194;-90
2022/11/01 08:59:16;;;;;;;45.80;29.20;;;11.70;99.90;;;;;;10504212;28;20461;-86
2022/11/01 09:04:37;;;;;;;52.10;28.97;;;11.80;99.90;;;;;;10472542;28;20197;-88
2022/11/01 09:09:58;;;;;;;47.03;27.43;;;11.90;99.90;;;;;;10476906;28;20433;-86
2022/11/01 09:15:20;;;;;;;46.87;27.57;;;11.90;99.90;;;;;;10483953;28;20188;-89
2022/11/01 09:20:41;;;;;;;41.93;24.63;;;11.90;99.90;;;;;;10470554;28;20220;-89
2022/11/01 09:26:04;;;;;;;42.27;24.57;;;11.90;99.90;;;;;;10494816;28;20264;-78
2022/11/01 09:31:27;;;;;;;47.67;27.23;;;12.00;99.90;;;;;;10511485;28;20185;-78
2022/11/01 09:36:48;;;;;;;47.50;27.93;;;12.00;99.90;;;;;;10470013;28;20222;-86
2022/11/01 09:42:33;;;;;;;44.13;23.70;;;12.00;99.90;;;;;;10519049;28;20224;-89
2022/11/01 09:47:56;;;;;;;43.03;25.07;;;12.00;99.90;;;;;;10510590;28;20231;-78
2022/11/01 09:53:20;;;;;;;41.27;24.13;;;12.00;99.90;;;;;;10510178;28;20402;-79
2022/11/01 09:59:01;;;;;;;37.37;21.90;;;12.00;99.90;;;;;;10524704;28;20212;-77
2022/11/01 10:04:28;;;;;;;39.37;22.40;;;12.10;99.90;;;;;;10470623;28;20541;-81
2022/11/01 10:09:59;;;;;;;40.40;24.03;;;12.10;99.90;;;;;;10467052;22;20241;-80
2022/11/01 10:15:44;;;;;;;50.67;27.23;;;12.10;99.90;;;;;;10375351;28;20275;-79
2022/11/01 10:21:13;;;;;;;52.07;31.63;;;12.20;99.90;;;;;;10385852;28;20535;-78
2022/11/01 10:26:35;;;;;;;45.27;24.50;;;12.20;99.90;;;;;;10401129;28;20584;-87
2022/11/01 10:31:57;;;;;;;46.53;25.20;;;12.30;99.90;;;;;;10389056;28;20206;-78
2022/11/01 10:37:41;;;;;;;47.13;26.67;;;12.30;99.90;;;;;;10413926;28;20252;-86
2022/11/01 10:43:13;;;;;;;46.10;24.77;;;12.50;99.90;;;;;;10392679;28;20203;-82
2022/11/01 10:48:42;;;;;;;44.93;24.03;;;12.50;99.90;;;;;;10358751;28;20208;-78
2022/11/01 10:54:09;;;;;;;34.97;20.03;;;12.50;99.90;;;;;;10361086;28;20276;-88
2022/11/01 10:59:42;;;;;;;33.47;22.73;;;12.50;99.90;;;;;;10372347;28;20441;-83
2022/11/01 11:05:03;;;;;;;35.30;21.83;;;12.50;99.90;;;;;;10402330;28;20206;-78
2022/11/01 11:10:27;;;;;;;34.20;22.43;;;12.40;99.90;;;;;;10411556;28;20234;-79
2022/11/01 11:16:00;;;;;;;30.67;18.90;;;12.40;99.90;;;;;;10426151;28;20198;-86
2022/11/01 11:21:21;;;;;;;27.10;17.37;;;12.50;99.90;;;;;;10398101;28;20252;-79
2022/11/01 11:26:50;;;;;;;46.97;27.57;;;12.40;99.90;;;;;;10426032;28;20199;-78
2022/11/01 11:32:16;;;;;;;27.30;16.60;;;12.40;99.90;;;;;;10392962;28;20190;-81
2022/11/01 11:37:38;;;;;;;37.33;20.83;;;12.50;99.90;;;;;;10329024;28;20222;-78
2022/11/01 11:43:20;;;;;;;26.97;17.83;;;12.50;99.90;;;;;;10439508;28;20431;-81
2022/11/01 11:48:58;;;;;;;30.63;17.63;;;12.70;99.90;;;;;;10423342;28;20402;-79
2022/11/01 11:54:19;;;;;;;31.70;17.87;;;12.70;99.90;;;;;;10425055;28;20200;-82
2022/11/01 11:59:42;;;;;;;26.67;16.47;;;12.80;99.90;;;;;;10358289;28;20214;-88
2022/11/01 12:05:14;;;;;;;23.43;15.27;;;12.70;99.90;;;;;;10402216;28;20197;-88
2022/11/01 12:10:36;;;;;;;23.90;13.90;;;12.70;99.90;;;;;;10408997;28;20273;-83
2022/11/01 12:16:18;;;;;;;26.47;17.63;;;12.60;99.90;;;;;;10396460;28;20489;-82
2022/11/01 12:21:42;;;;;;;32.60;17.50;;;12.70;99.90;;;;;;10395024;28;20278;-79
2022/11/01 12:27:09;;;;;;;26.97;16.07;;;12.70;99.90;;;;;;10396703;28;20275;-78
2022/11/01 12:32:36;;;;;;;46.03;25.47;;;12.70;99.90;;;;;;10395478;28;20193;-80
2022/11/01 12:38:39;;;;;;;37.17;27.27;;;12.60;99.90;;;;;;10394393;28;20246;-81
2022/11/01 12:44:36;;;;;;;33.73;20.83;;;12.60;99.90;;;;;;10340465;28;20261;-78
2022/11/01 12:50:15;;;;;;;41.53;24.10;;;12.50;99.90;;;;;;10363055;28;20201;-82
2022/11/01 12:55:41;;;;;;;27.60;17.87;;;12.50;99.90;;;;;;10378646;28;20193;-81
2022/11/01 13:01:23;;;;;;;31.00;20.43;;;12.60;99.90;;;;;;10372453;28;20536;-84
2022/11/01 13:06:59;;;;;;;35.63;21.23;;;12.70;99.90;;;;;;10417177;28;20208;-79
2022/11/01 13:12:46;;;;;;;32.23;19.57;;;12.70;99.90;;;;;;10401727;28;20497;-79
2022/11/01 13:18:19;;;;;;;28.03;17.03;;;12.70;99.90;;;;;;10400589;28;20305;-80
2022/11/01 13:24:23;;;;;;;23.33;13.70;;;12.80;99.90;;;;;;10398384;28;20201;-78
2022/11/01 13:29:59;;;;;;;24.40;16.53;;;12.90;99.90;;;;;;10360361;28;20202;-78
2022/11/01 13:35:35;;;;;;;26.03;17.73;;;12.90;99.90;;;;;;10346293;28;20494;-81
2022/11/01 13:41:18;;;;;;;39.57;25.60;;;13.00;99.90;;;;;;10408561;28;20222;-81
2022/11/01 13:46:48;;;;;;;35.70;20.87;;;12.90;99.90;;;;;;10427498;28;20258;-79
2022/11/01 13:52:22;;;;;;;37.93;23.07;;;12.80;99.90;;;;;;10457788;28;20193;-83
2022/11/01 13:57:44;;;;;;;32.60;20.47;;;12.70;99.90;;;;;;10381633;28;20230;-79
2022/11/01 14:03:20;;;;;;;25.87;18.10;;;12.70;99.90;;;;;;10395015;28;20193;-80
2022/11/01 14:08:43;;;;;;;28.73;19.10;;;12.60;99.90;;;;;;10395945;28;20238;-78
2022/11/01 14:14:30;;;;;;;39.73;24.50;;;12.60;99.90;;;;;;10413285;28;20206;-80
2022/11/01 14:20:00;;;;;;;30.63;20.43;;;12.60;99.90;;;;;;10398764;28;20218;-78
2022/11/01 14:25:30;;;;;;;26.63;18.57;;;12.60;99.90;;;;;;10413228;28;20205;-79
2022/11/01 14:30:52;;;;;;;32.47;20.50;;;12.60;99.90;;;;;;10431965;28;20426;-78
2022/11/01 14:36:16;;;;;;;32.17;22.77;;;12.60;99.90;;;;;;10398570;28;20195;-79
2022/11/01 14:41:39;;;;;;;35.60;23.80;;;12.50;99.90;;;;;;10442554;28;20251;-83
2022/11/01 14:47:07;;;;;;;29.83;20.47;;;12.60;99.90;;;;;;10413464;28;20389;-78
2022/11/01 14:52:44;;;;;;;40.93;22.07;;;12.60;99.90;;;;;;10345868;28;20205;-84
2022/11/01 14:58:17;;;;;;;54.47;32.53;;;12.50;99.90;;;;;;10385807;28;20229;-79
2022/11/01 15:03:38;;;;;;;54.10;32.67;;;12.50;99.90;;;;;;10398221;28;20194;-88
2022/11/01 15:09:03;;;;;;;36.37;22.83;;;12.50;99.90;;;;;;10403421;28;20238;-78
2022/11/01 15:14:37;;;;;;;32.50;22.17;;;12.50;99.90;;;;;;10397673;28;20370;-82
2022/11/01 15:20:02;;;;;;;45.57;32.27;;;12.50;99.90;;;;;;10369846;28;20218;-78
2022/11/01 15:25:28;;;;;;;31.20;21.17;;;12.50;99.90;;;;;;10370812;28;20220;-79
2022/11/01 15:30:56;;;;;;;33.53;22.47;;;12.50;99.90;;;;;;10356438;28;20199;-79
2022/11/01 15:36:25;;;;;;;42.73;26.93;;;12.50;99.90;;;;;;10360702;28;20193;-78
2022/11/01 15:41:48;;;;;;;45.03;23.00;;;12.40;99.90;;;;;;10424284;28;20390;-79
2022/11/01 15:47:17;;;;;;;39.73;22.63;;;12.40;99.90;;;;;;10434475;28;20186;-84
2022/11/01 15:52:38;;;;;;;37.93;22.17;;;12.40;99.90;;;;;;10398447;28;20489;-81
2022/11/01 15:58:18;;;;;;;48.17;23.73;;;12.40;99.90;;;;;;10396740;28;20241;-89
2022/11/01 16:03:48;;;;;;;39.37;23.27;;;12.30;99.90;;;;;;10392392;28;20270;-79
2022/11/01 16:09:46;;;;;;;38.73;24.07;;;12.30;99.90;;;;;;10395974;28;20230;-79
2022/11/01 16:15:22;;;;;;;42.17;24.33;;;12.30;99.90;;;;;;10388854;28;20216;-79
2022/11/01 16:20:46;;;;;;;41.93;22.50;;;12.30;99.90;;;;;;10355061;28;20219;-84
2022/11/01 16:26:08;;;;;;;41.43;24.23;;;12.20;99.90;;;;;;10327955;28;20395;-83
2022/11/01 16:31:32;;;;;;;49.97;26.63;;;12.10;99.90;;;;;;10354830;28;20501;-89
2022/11/01 16:36:53;;;;;;;42.07;23.43;;;12.10;99.90;;;;;;10341762;28;20392;-80
2022/11/01 16:42:15;;;;;;;49.70;28.63;;;12.10;99.90;;;;;;10425117;28;20392;-79
2022/11/01 16:47:36;;;;;;;56.00;34.53;;;12.10;99.90;;;;;;10393049;28;20244;-79
2022/11/01 16:52:58;;;;;;;64.17;31.83;;;12.10;99.90;;;;;;10356172;28;20194;-81
2022/11/01 16:58:24;;;;;;;63.03;33.23;;;12.10;99.90;;;;;;10357440;28;20245;-79
2022/11/01 17:03:47;;;;;;;53.90;30.53;;;12.10;99.90;;;;;;10366203;28;20389;-81
2022/11/01 17:09:13;;;;;;;57.20;31.10;;;12.00;99.90;;;;;;10409945;28;20256;-83
2022/11/01 17:14:36;;;;;;;57.60;28.73;;;12.00;99.90;;;;;;10394035;28;20203;-80
2022/11/01 17:20:02;;;;;;;58.60;31.80;;;12.00;99.90;;;;;;10423617;28;20413;-80
2022/11/01 17:25:27;;;;;;;60.47;29.70;;;12.00;99.90;;;;;;10428499;28;20396;-80
2022/11/01 17:30:48;;;;;;;51.47;29.43;;;12.00;99.90;;;;;;10394056;28;20229;-82
2022/11/01 17:36:15;;;;;;;55.67;30.80;;;12.00;99.90;;;;;;10419221;28;20190;-82
2022/11/01 17:41:36;;;;;;;58.27;30.77;;;12.00;99.90;;;;;;10430680;28;20227;-81
2022/11/01 17:46:58;;;;;;;68.87;33.70;;;12.00;99.90;;;;;;10390750;28;20422;-80
2022/11/01 17:52:19;;;;;;;72.93;36.47;;;12.00;99.90;;;;;;10359979;28;20588;-81
2022/11/01 17:57:42;;;;;;;63.67;33.17;;;12.10;99.90;;;;;;10388262;28;20217;-81
2022/11/01 18:03:03;;;;;;;74.43;37.87;;;12.10;99.90;;;;;;10387069;28;20277;-79
2022/11/01 18:08:26;;;;;;;74.27;37.57;;;12.10;99.90;;;;;;10413838;28;20463;-79
2022/11/01 18:14:09;;;;;;;71.47;36.97;;;12.10;99.90;;;;;;10387002;28;20282;-81
2022/11/01 18:19:34;;;;;;;78.80;39.77;;;12.20;99.90;;;;;;10384860;28;20251;-79
2022/11/01 18:25:14;;;;;;;79.87;39.10;;;12.20;99.90;;;;;;10418232;28;20253;-79
2022/11/01 18:30:35;;;;;;;73.73;36.90;;;12.20;99.90;;;;;;10418458;28;20601;-90
2022/11/01 18:36:39;;;;;;;69.40;35.87;;;12.20;99.90;;;;;;10432133;28;20186;-79
2022/11/01 18:42:00;;;;;;;68.67;34.10;;;12.20;99.90;;;;;;10421970;28;20195;-78
2022/11/01 18:47:28;;;;;;;60.20;31.07;;;12.20;99.90;;;;;;10388082;28;20203;-81
2022/11/01 18:53:15;;;;;;;69.73;33.93;;;12.20;99.90;;;;;;10358227;28;20200;-79
2022/11/01 18:58:38;;;;;;;73.10;35.03;;;12.30;99.90;;;;;;10359826;28;20226;-79
2022/11/01 19:04:26;;;;;;;63.37;30.50;;;12.30;99.90;;;;;;10392797;28;20220;-79
2022/11/01 19:09:52;;;;;;;67.77;34.90;;;12.30;99.90;;;;;;10398374;28;20264;-80
2022/11/01 19:15:18;;;;;;;65.33;31.63;;;12.30;99.90;;;;;;10357518;28;20230;-79
2022/11/01 19:20:48;;;;;;;59.00;31.20;;;12.30;99.90;;;;;;10343600;28;20229;-81
2022/11/01 19:26:21;;;;;;;53.93;28.50;;;12.30;99.90;;;;;;10357154;28;20228;-82
2022/11/01 19:31:46;;;;;;;58.57;28.97;;;12.30;99.90;;;;;;10356558;28;20207;-86
2022/11/01 19:37:28;;;;;;;47.30;25.43;;;12.30;99.90;;;;;;10357855;28;20548;-85
2022/11/01 19:42:50;;;;;;;45.60;23.57;;;12.30;99.90;;;;;;10383613;28;20417;-88
2022/11/01 19:48:19;;;;;;;46.77;24.33;;;12.30;99.90;;;;;;10433946;28;20201;-88
2022/11/01 19:53:42;;;;;;;47.43;25.47;;;12.30;99.90;;;;;;10396858;28;20272;-86
2022/11/01 19:59:12;;;;;;;54.47;26.90;;;12.30;99.90;;;;;;10396602;28;20218;-79
2022/11/01 20:04:34;;;;;;;43.43;25.63;;;12.30;99.90;;;;;;10402123;28;20198;-82
2022/11/01 20:09:55;;;;;;;50.60;27.53;;;12.30;99.90;;;;;;10391915;28;20231;-79
2022/11/01 20:15:18;;;;;;;54.50;27.90;;;12.40;99.90;;;;;;10356209;28;20354;-79
2022/11/01 20:20:42;;;;;;;42.43;25.30;;;12.30;99.90;;;;;;10354870;28;20241;-78
2022/11/01 20:26:04;;;;;;;39.10;22.33;;;12.40;99.90;;;;;;10349504;28;20234;-82
2022/11/01 20:31:26;;;;;;;40.47;22.97;;;12.30;99.90;;;;;;10382201;28;20196;-80
2022/11/01 20:36:47;;;;;;;34.80;21.57;;;12.40;99.90;;;;;;10396131;28;20198;-80
2022/11/01 20:42:17;;;;;;;31.50;19.60;;;12.40;99.90;;;;;;10463380;28;20239;-79
2022/11/01 20:47:38;;;;;;;32.87;20.93;;;12.40;99.90;;;;;;10408180;28;20207;-79
2022/11/01 20:53:03;;;;;;;37.63;22.20;;;12.50;99.90;;;;;;10452341;28;20200;-79
2022/11/01 20:58:26;;;;;;;37.07;22.27;;;12.50;99.90;;;;;;10391491;28;20230;-79
2022/11/01 21:03:52;;;;;;;38.47;22.77;;;12.50;99.90;;;;;;10428922;28;20220;-86
2022/11/01 21:09:32;;;;;;;39.33;24.63;;;12.50;99.90;;;;;;10400995;28;20225;-79
2022/11/01 21:14:55;;;;;;;39.70;24.80;;;12.60;99.90;;;;;;10421217;28;20194;-79
2022/11/01 21:20:24;;;;;;;35.17;22.77;;;12.60;99.90;;;;;;10388489;28;20306;-79
2022/11/01 21:25:47;;;;;;;33.53;20.37;;;12.60;99.90;;;;;;10380751;28;20190;-81
2022/11/01 21:31:14;;;;;;;31.53;18.03;;;12.60;99.90;;;;;;10360683;28;20437;-80
2022/11/01 21:36:41;;;;;;;25.90;16.53;;;12.50;99.90;;;;;;10375123;28;20205;-79
2022/11/01 21:42:22;;;;;;;26.83;17.17;;;12.50;99.90;;;;;;10412970;28;20229;-79
2022/11/01 21:47:43;;;;;;;22.53;16.03;;;12.50;99.90;;;;;;10458285;28;20237;-82
2022/11/01 21:53:05;;;;;;;19.73;14.33;;;12.40;99.90;;;;;;10441245;28;20390;-79
2022/11/01 21:58:26;;;;;;;20.67;14.03;;;12.40;99.90;;;;;;10359282;28;20303;-79
2022/11/01 22:03:47;;;;;;;21.63;14.47;;;12.40;99.90;;;;;;10390058;28;20206;-79
2022/11/01 22:09:09;;;;;;;20.33;13.90;;;12.40;99.90;;;;;;10399951;28;20226;-79
2022/11/01 22:14:30;;;;;;;24.80;16.30;;;12.40;99.90;;;;;;10400848;28;20207;-84
2022/11/01 22:19:51;;;;;;;23.63;14.47;;;12.40;99.90;;;;;;10398377;28;20231;-84
2022/11/01 22:25:13;;;;;;;18.30;13.80;;;12.40;99.90;;;;;;10403569;28;20194;-79
2022/11/01 22:30:34;;;;;;;21.73;14.27;;;12.40;99.90;;;;;;10385642;28;20208;-87
2022/11/01 22:35:55;;;;;;;17.63;13.10;;;12.40;99.90;;;;;;10432657;28;20433;-82
2022/11/01 22:41:29;;;;;;;17.87;13.23;;;12.40;99.90;;;;;;10428528;28;20260;-85
2022/11/01 22:46:56;;;;;;;21.33;14.03;;;12.40;99.90;;;;;;10440467;28;20494;-80
2022/11/01 22:52:37;;;;;;;21.83;15.57;;;12.40;99.90;;;;;;10440890;28;20534;-83
2022/11/01 22:58:29;;;;;;;22.57;15.93;;;12.40;99.90;;;;;;10360752;28;20221;-79
2022/11/01 23:03:51;;;;;;;25.40;16.17;;;12.40;99.90;;;;;;10393243;28;20234;-81
2022/11/01 23:09:17;;;;;;;25.40;17.13;;;12.50;99.90;;;;;;10398384;28;20294;-81
2022/11/01 23:14:44;;;;;;;25.40;17.77;;;12.50;99.90;;;;;;10397958;28;20268;-89
2022/11/01 23:20:05;;;;;;;28.70;18.87;;;12.50;99.90;;;;;;10392957;28;20229;-78
2022/11/01 23:25:26;;;;;;;23.23;17.67;;;12.40;99.90;;;;;;10397607;28;20415;-80
2022/11/01 23:30:48;;;;;;;25.57;16.17;;;12.40;99.90;;;;;;10357298;28;20195;-85
2022/11/01 23:36:22;;;;;;;30.07;19.50;;;12.40;99.90;;;;;;10357439;28;20191;-82
2022/11/01 23:41:44;;;;;;;33.20;19.27;;;12.40;99.90;;;;;;10402665;28;20225;-80
2022/11/01 23:47:18;;;;;;;24.60;18.40;;;12.40;99.90;;;;;;10422610;28;20371;-79
2022/11/01 23:52:45;;;;;;;27.50;18.83;;;12.40;99.90;;;;;;10436885;28;20280;-80
2022/11/01 23:58:31;;;;;;;28.87;20.90;;;12.40;99.90;;;;;;10357612;28;20520;-81
